createdAt,value
2018-04-10T00:01:01.097Z,54.30
2018-04-10T00:03:28.614Z,56.67
2018-04-10T00:05:56.126Z,53.23
2018-04-10T00:08:23.725Z,53.00
2018-04-10T00:10:51.233Z,54.77
2018-04-10T00:13:18.758Z,54.17
2018-04-10T00:15:46.406Z,53.30
2018-04-10T00:18:13.910Z,49.73
2018-04-10T00:20:41.412Z,51.60
2018-04-10T00:23:08.922Z,51.83
2018-04-10T00:25:37.210Z,52.40
2018-04-10T00:28:04.903Z,54.83
2018-04-10T00:30:32.460Z,52.67
2018-04-10T00:32:59.971Z,51.07
2018-04-10T00:35:28.249Z,51.37
2018-04-10T00:37:55.761Z,51.60
2018-04-10T00:40:23.285Z,49.43
2018-04-10T00:42:50.792Z,49.00
2018-04-10T00:45:18.335Z,49.10
2018-04-10T00:47:45.849Z,50.80
2018-04-10T00:50:13.563Z,50.77
2018-04-10T00:52:41.290Z,44.07
2018-04-10T00:55:09.012Z,50.80
2018-04-10T00:57:38.313Z,50.97
2018-04-10T01:00:05.838Z,49.40
2018-04-10T01:02:33.357Z,47.17
2018-04-10T01:05:01.053Z,50.93
2018-04-10T01:07:28.557Z,50.83
2018-04-10T01:09:56.243Z,52.27
2018-04-10T01:12:24.042Z,50.77
2018-04-10T01:14:51.853Z,52.20
2018-04-10T01:17:19.869Z,54.37
2018-04-10T01:19:47.393Z,49.70
2018-04-10T01:22:15.014Z,50.60
2018-04-10T01:24:42.531Z,51.20
2018-04-10T01:27:10.041Z,51.17
2018-04-10T01:29:37.623Z,50.80
2018-04-10T01:32:05.237Z,50.60
2018-04-10T01:34:32.969Z,53.80
2018-04-10T01:37:00.523Z,52.10
2018-04-10T01:39:28.019Z,52.97
2018-04-10T01:41:55.652Z,53.07
2018-04-10T01:44:23.169Z,53.80
2018-04-10T01:46:50.915Z,55.50
2018-04-10T01:49:18.425Z,54.00
2018-04-10T01:51:45.993Z,54.77
2018-04-10T01:54:13.561Z,53.27
2018-04-10T01:56:41.386Z,54.10
2018-04-10T01:59:08.909Z,52.60
2018-04-10T02:01:36.437Z,54.20
2018-04-10T02:04:04.233Z,52.80
2018-04-10T02:06:31.746Z,55.33
2018-04-10T02:08:59.539Z,56.60
2018-04-10T02:14:01.589Z,54.03
2018-04-10T02:16:29.108Z,58.80
2018-04-10T02:18:57.386Z,59.57
2018-04-10T02:21:24.909Z,60.63
2018-04-10T02:23:52.421Z,55.13
2018-04-10T02:26:20.042Z,59.17
2018-04-10T02:28:47.561Z,60.50
2018-04-10T02:31:15.080Z,58.47
2018-04-10T02:33:43.365Z,59.77
2018-04-10T02:36:10.895Z,60.83
2018-04-10T02:38:38.510Z,59.40
2018-04-10T02:41:06.058Z,61.23
2018-04-10T02:43:33.562Z,58.67
2018-04-10T02:46:01.209Z,52.67
2018-04-10T02:48:28.721Z,58.17
2018-04-10T02:50:56.264Z,55.70
2018-04-10T02:53:23.757Z,58.97
2018-04-10T02:55:51.280Z,56.47
2018-04-10T02:58:18.791Z,55.17
2018-04-10T03:00:46.565Z,55.47
2018-04-10T03:03:14.358Z,55.33
2018-04-10T03:05:41.842Z,54.50
2018-04-10T03:08:09.552Z,55.77
2018-04-10T03:10:37.081Z,53.57
2018-04-10T03:13:04.760Z,55.23
2018-04-10T03:15:32.298Z,54.90
2018-04-10T03:17:59.993Z,53.90
2018-04-10T03:20:27.516Z,54.80
2018-04-10T03:22:55.200Z,52.60
2018-04-10T03:25:22.718Z,54.43
2018-04-10T03:27:51.018Z,54.83
2018-04-10T03:30:18.604Z,55.07
2018-04-10T03:32:46.257Z,52.67
2018-04-10T03:35:14.035Z,54.03
2018-04-10T03:37:41.785Z,54.57
2018-04-10T03:40:09.309Z,53.57
2018-04-10T03:42:36.830Z,57.10
2018-04-10T03:45:04.346Z,54.40
2018-04-10T03:47:31.894Z,53.93
2018-04-10T03:49:59.405Z,57.37
2018-04-10T03:52:27.112Z,54.00
2018-04-10T03:54:54.629Z,57.27
2018-04-10T03:57:22.231Z,57.80
2018-04-10T03:59:49.805Z,54.33
2018-04-10T04:02:17.330Z,54.03
2018-04-10T04:04:45.008Z,52.93
2018-04-10T04:07:12.822Z,54.63
2018-04-10T04:09:40.321Z,56.00
2018-04-10T04:12:08.030Z,55.20
2018-04-10T04:14:35.548Z,56.80
2018-04-10T04:17:26.725Z,53.77
2018-04-10T04:20:06.810Z,55.10
2018-04-10T04:22:39.498Z,56.47
2018-04-10T04:25:06.994Z,55.17
2018-04-10T04:27:34.510Z,55.10
2018-04-10T04:30:02.022Z,55.67
2018-04-10T04:32:29.548Z,56.67
2018-04-10T04:34:57.222Z,56.00
2018-04-10T04:37:24.733Z,57.43
2018-04-10T04:39:52.254Z,54.90
2018-04-10T04:42:19.787Z,59.60
2018-04-10T04:44:47.346Z,55.30
2018-04-10T04:47:14.886Z,53.67
2018-04-10T04:49:42.557Z,56.20
2018-04-10T04:52:10.111Z,55.97
2018-04-10T04:54:37.794Z,57.87
2018-04-10T04:57:05.309Z,54.90
2018-04-10T04:59:32.848Z,52.33
2018-04-10T05:02:00.466Z,54.30
2018-04-10T05:04:27.981Z,53.67
2018-04-10T05:06:55.535Z,53.73
2018-04-10T05:09:23.110Z,51.80
2018-04-10T05:11:50.909Z,53.73
2018-04-10T05:14:18.421Z,53.53
2018-04-10T05:16:46.128Z,54.20
2018-04-10T05:19:13.642Z,56.90
2018-04-10T05:21:41.170Z,51.87
2018-04-10T05:24:08.699Z,49.10
2018-04-10T05:26:36.211Z,51.50
2018-04-10T05:29:04.041Z,47.43
2018-04-10T05:31:31.554Z,48.97
2018-04-10T05:33:59.244Z,47.53
2018-04-10T05:36:26.775Z,47.37
2018-04-10T05:38:54.437Z,51.37
2018-04-10T05:41:21.957Z,59.27
2018-04-10T05:43:49.677Z,46.90
2018-04-10T05:46:17.282Z,50.27
2018-04-10T05:48:45.591Z,47.60
2018-04-10T05:51:13.103Z,47.80
2018-04-10T05:53:41.382Z,50.53
2018-04-10T05:56:09.136Z,46.83
2018-04-10T05:58:36.664Z,49.17
2018-04-10T06:01:04.208Z,45.63
2018-04-10T06:03:31.770Z,50.37
2018-04-10T06:05:59.564Z,47.40
2018-04-10T06:08:27.090Z,45.53
2018-04-10T06:10:54.644Z,42.77
2018-04-10T06:13:22.242Z,44.40
2018-04-10T06:15:49.797Z,45.27
2018-04-10T06:18:17.381Z,42.80
2018-04-10T06:20:44.915Z,43.27
2018-04-10T06:23:12.419Z,42.40
2018-04-10T06:25:40.107Z,38.40
2018-04-10T06:28:07.885Z,40.03
2018-04-10T06:30:35.402Z,42.20
2018-04-10T06:33:03.109Z,48.00
2018-04-10T06:35:30.625Z,43.10
2018-04-10T06:37:58.662Z,42.00
2018-04-10T06:40:26.164Z,42.97
2018-04-10T06:42:54.170Z,41.43
2018-04-10T06:45:21.733Z,42.47
2018-04-10T06:47:49.362Z,43.57
2018-04-10T06:50:17.298Z,43.27
2018-04-10T06:52:46.013Z,41.13
2018-04-10T06:55:13.601Z,43.70
2018-04-10T06:57:41.134Z,42.20
2018-04-10T07:00:08.789Z,42.77
2018-04-10T07:02:38.130Z,42.07
2018-04-10T07:05:05.654Z,41.87
2018-04-10T07:07:33.186Z,41.33
2018-04-10T07:10:00.774Z,40.20
2018-04-10T07:12:28.288Z,43.20
2018-04-10T07:14:55.797Z,42.93
2018-04-10T07:17:23.511Z,40.07
2018-04-10T07:19:51.852Z,40.90
2018-04-10T07:22:19.375Z,39.77
2018-04-10T07:24:46.890Z,39.83
2018-04-10T07:27:14.926Z,36.60
2018-04-10T07:29:42.597Z,41.63
2018-04-10T07:32:10.105Z,41.97
2018-04-10T07:34:37.810Z,40.93
2018-04-10T07:37:05.578Z,42.50
2018-04-10T07:39:33.098Z,43.03
2018-04-10T07:42:00.802Z,40.87
2018-04-10T07:44:28.354Z,40.80
2018-04-10T07:46:55.865Z,40.60
2018-04-10T07:49:23.419Z,38.60
2018-04-10T07:51:50.931Z,37.80
2018-04-10T07:54:18.673Z,40.63
2018-04-10T07:56:46.185Z,38.10
2018-04-10T07:59:13.873Z,38.77
2018-04-10T08:01:41.388Z,38.60
2018-04-10T08:04:08.905Z,39.17
2018-04-10T08:06:36.440Z,36.10
2018-04-10T08:09:04.807Z,38.03
2018-04-10T08:11:33.078Z,37.37
2018-04-10T08:14:00.777Z,37.80
2018-04-10T08:16:28.569Z,39.43
2018-04-10T08:18:56.095Z,39.90
2018-04-10T08:21:23.782Z,41.60
2018-04-10T08:23:51.318Z,40.37
2018-04-10T08:26:19.009Z,37.37
2018-04-10T08:28:46.538Z,38.50
2018-04-10T08:31:14.235Z,40.47
2018-04-10T08:33:41.762Z,39.30
2018-04-10T08:36:09.269Z,40.23
2018-04-10T08:38:36.893Z,37.83
2018-04-10T08:41:04.635Z,37.57
2018-04-10T08:43:32.147Z,38.33
2018-04-10T08:45:59.679Z,36.90
2018-04-10T08:48:27.185Z,38.37
2018-04-10T08:50:55.465Z,35.97
2018-04-10T08:53:23.197Z,32.00
2018-04-10T08:55:50.715Z,35.67
2018-04-10T08:58:18.222Z,34.33
2018-04-10T09:00:46.781Z,36.67
2018-04-10T09:03:14.481Z,35.50
2018-04-10T09:05:42.006Z,33.57
2018-04-10T09:08:09.532Z,34.40
2018-04-10T09:10:37.246Z,34.87
2018-04-10T09:13:04.956Z,34.37
2018-04-10T09:15:32.469Z,34.07
2018-04-10T09:17:59.990Z,34.13
2018-04-10T09:20:27.520Z,35.30
2018-04-10T09:22:55.053Z,36.00
2018-04-10T09:25:22.574Z,34.90
2018-04-10T09:27:50.118Z,36.10
2018-04-10T09:30:17.781Z,35.10
2018-04-10T09:32:45.567Z,30.97
2018-04-10T09:35:13.090Z,34.70
2018-04-10T09:37:40.740Z,35.30
2018-04-10T09:40:08.249Z,34.00
2018-04-10T09:42:35.774Z,34.83
2018-04-10T09:45:03.296Z,32.97
2018-04-10T09:47:31.574Z,35.23
2018-04-10T09:49:59.094Z,33.73
2018-04-10T09:52:26.614Z,35.63
2018-04-10T09:54:54.175Z,35.00
2018-04-10T09:57:21.681Z,34.70
2018-04-10T09:59:49.212Z,36.23
2018-04-10T10:02:16.705Z,41.03
2018-04-10T10:04:44.994Z,40.50
2018-04-10T10:07:12.517Z,43.03
2018-04-10T10:09:40.059Z,39.20
2018-04-10T10:12:07.566Z,40.33
2018-04-10T10:14:35.086Z,41.67
2018-04-10T10:17:02.605Z,43.30
2018-04-10T10:19:30.118Z,40.40
2018-04-10T10:21:57.757Z,41.50
2018-04-10T10:24:25.271Z,42.00
2018-04-10T10:26:52.949Z,41.03
2018-04-10T10:29:20.454Z,40.53
2018-04-10T10:31:47.978Z,43.97
2018-04-10T10:34:15.500Z,41.00
2018-04-10T10:36:43.778Z,41.97
2018-04-10T10:39:11.521Z,38.30
2018-04-10T10:41:39.021Z,41.40
2018-04-10T10:44:06.681Z,39.67
2018-04-10T10:46:34.238Z,40.30
2018-04-10T10:49:01.939Z,42.47
2018-04-10T10:51:29.462Z,39.73
2018-04-10T10:53:57.139Z,41.77
2018-04-10T10:56:24.889Z,39.57
2018-04-10T10:58:52.393Z,38.23
2018-04-10T11:01:20.111Z,34.47
2018-04-10T11:03:47.617Z,36.70
2018-04-10T11:06:15.133Z,37.57
2018-04-10T11:08:42.654Z,36.40
2018-04-10T11:11:10.173Z,35.93
2018-04-10T11:13:37.697Z,35.63
2018-04-10T11:16:05.237Z,36.57
2018-04-10T11:18:32.747Z,37.80
2018-04-10T11:21:00.373Z,33.43
2018-04-10T11:23:27.887Z,31.73
2018-04-10T11:25:56.274Z,35.33
2018-04-10T11:28:23.790Z,27.77
2018-04-10T11:30:51.322Z,32.67
2018-04-10T11:33:18.893Z,32.20
2018-04-10T11:35:46.698Z,33.27
2018-04-10T11:38:14.222Z,32.80
2018-04-10T11:40:41.905Z,34.00
2018-04-10T11:43:09.443Z,32.60
2018-04-10T11:45:36.953Z,34.17
2018-04-10T11:48:05.225Z,31.97
2018-04-10T11:50:32.758Z,29.40
2018-04-10T11:53:00.277Z,30.10
2018-04-10T11:55:27.862Z,30.33
2018-04-10T11:57:55.372Z,30.60
2018-04-10T12:00:22.894Z,32.97
2018-04-10T12:02:50.421Z,33.70
2018-04-10T12:05:17.993Z,31.63
2018-04-10T12:07:45.523Z,30.67
2018-04-10T12:10:13.241Z,30.80
2018-04-10T12:12:40.769Z,30.10
2018-04-10T12:15:08.280Z,30.93
2018-04-10T12:17:35.868Z,28.10
2018-04-10T12:20:03.652Z,29.20
2018-04-10T12:22:31.179Z,30.77
2018-04-10T12:24:58.682Z,27.43
2018-04-10T12:27:26.344Z,29.60
2018-04-10T12:29:53.850Z,30.13
2018-04-10T12:32:21.367Z,30.67
2018-04-10T12:34:48.909Z,27.80
2018-04-10T12:37:16.410Z,27.20
2018-04-10T12:39:44.461Z,28.80
2018-04-10T12:42:12.757Z,31.00
2018-04-10T12:44:41.025Z,31.47
2018-04-10T12:47:08.546Z,28.97
2018-04-10T12:49:36.063Z,27.33
2018-04-10T12:52:03.577Z,31.43
2018-04-10T12:54:31.116Z,28.57
2018-04-10T12:56:58.885Z,27.47
2018-04-10T12:59:27.216Z,27.90
2018-04-10T13:01:54.941Z,27.70
2018-04-10T13:04:22.457Z,24.70
2018-04-10T13:06:50.249Z,27.87
2018-04-10T13:09:17.761Z,23.67
2018-04-10T13:11:45.282Z,27.73
2018-04-10T13:14:13.642Z,28.30
2018-04-10T13:16:41.277Z,26.93
2018-04-10T13:19:08.791Z,25.40
2018-04-10T13:21:37.097Z,26.40
2018-04-10T13:24:04.609Z,26.40
2018-04-10T13:26:32.349Z,23.57
2018-04-10T13:28:59.876Z,24.57
2018-04-10T13:31:27.386Z,26.87
2018-04-10T13:33:54.905Z,26.70
2018-04-10T13:36:22.485Z,24.53
2018-04-10T13:38:50.004Z,24.70
2018-04-10T13:41:17.685Z,26.90
2018-04-10T13:43:45.208Z,25.67
2018-04-10T13:46:13.052Z,26.63
2018-04-10T13:48:40.685Z,24.77
2018-04-10T13:51:08.466Z,25.50
2018-04-10T13:53:36.080Z,26.30
2018-04-10T13:56:03.584Z,25.20
2018-04-10T13:58:31.097Z,22.90
2018-04-10T14:00:58.614Z,23.40
2018-04-10T14:03:26.970Z,22.80
2018-04-10T14:05:54.493Z,20.67
2018-04-10T14:08:22.469Z,21.20
2018-04-10T14:10:49.989Z,22.93
2018-04-10T14:13:17.685Z,22.47
2018-04-10T14:15:45.201Z,22.17
2018-04-10T14:18:12.742Z,21.80
2018-04-10T14:20:40.258Z,22.57
2018-04-10T14:23:07.817Z,23.77
2018-04-10T14:25:35.331Z,24.33
2018-04-10T14:28:03.089Z,23.57
2018-04-10T14:30:30.604Z,22.93
2018-04-10T14:32:58.279Z,18.37
2018-04-10T14:35:25.786Z,21.87
2018-04-10T14:37:53.317Z,23.00
2018-04-10T14:40:20.843Z,21.83
2018-04-10T14:42:48.414Z,22.20
2018-04-10T14:45:16.152Z,23.00
2018-04-10T14:47:43.656Z,21.63
2018-04-10T14:50:11.409Z,24.30
2018-04-10T14:52:38.937Z,22.13
2018-04-10T14:55:06.445Z,22.77
2018-04-10T14:57:33.957Z,19.97
2018-04-10T15:00:01.542Z,22.13
2018-04-10T15:02:29.059Z,23.50
2018-04-10T15:04:56.757Z,22.00
2018-04-10T15:07:24.283Z,20.30
2018-04-10T15:09:51.800Z,19.70
2018-04-10T15:12:20.135Z,18.07
2018-04-10T15:14:47.638Z,22.77
2018-04-10T15:17:15.930Z,21.93
2018-04-10T15:19:43.444Z,23.37
2018-04-10T15:22:10.961Z,20.27
2018-04-10T15:24:38.545Z,22.60
2018-04-10T15:27:06.972Z,20.60
2018-04-10T15:29:34.526Z,20.30
2018-04-10T15:32:02.802Z,21.00
2018-04-10T15:34:30.706Z,20.30
2018-04-10T15:36:58.210Z,20.27
2018-04-10T15:39:25.751Z,18.80
2018-04-10T15:41:53.281Z,19.07
2018-04-10T15:44:21.024Z,21.40
2018-04-10T15:46:48.546Z,19.50
2018-04-10T15:49:16.208Z,20.77
2018-04-10T15:51:43.929Z,19.03
2018-04-10T15:54:11.536Z,19.10
2018-04-10T15:56:39.809Z,18.77
2018-04-10T15:59:07.339Z,19.30
2018-04-10T16:01:35.308Z,16.77
2018-04-10T16:04:02.944Z,17.83
2018-04-10T16:06:30.453Z,19.23
2018-04-10T16:08:57.997Z,17.47
2018-04-10T16:11:25.518Z,17.33
2018-04-10T16:13:53.059Z,17.70
2018-04-10T16:16:20.600Z,18.73
2018-04-10T16:18:48.121Z,17.67
2018-04-10T16:21:16.983Z,18.10
2018-04-10T16:23:44.576Z,18.30
2018-04-10T16:26:12.329Z,16.60
2018-04-10T16:28:39.849Z,17.30
2018-04-10T16:31:08.253Z,16.23
2018-04-10T16:33:35.821Z,18.00
2018-04-10T16:36:03.353Z,12.67
2018-04-10T16:38:30.865Z,16.77
2018-04-10T16:40:58.619Z,16.93
2018-04-10T16:43:26.157Z,15.77
2018-04-10T16:45:53.801Z,17.43
2018-04-10T16:48:21.322Z,16.70
2018-04-10T16:50:49.114Z,16.47
2018-04-10T16:53:17.345Z,15.97
2018-04-10T16:55:44.902Z,18.33
2018-04-10T16:58:13.654Z,18.20
2018-04-10T17:00:41.276Z,18.60
2018-04-10T17:03:08.786Z,18.90
2018-04-10T17:05:36.426Z,20.10
2018-04-10T17:08:04.018Z,17.23
2018-04-10T17:10:31.537Z,15.17
2018-04-10T17:12:59.055Z,16.33
2018-04-10T17:15:27.326Z,18.00
2018-04-10T17:17:55.055Z,16.43
2018-04-10T17:20:22.573Z,18.60
2018-04-10T17:22:50.887Z,18.20
2018-04-10T17:25:18.602Z,18.90
2018-04-10T17:27:46.139Z,19.77
2018-04-10T17:30:13.622Z,19.43
2018-04-10T17:32:41.294Z,18.30
2018-04-10T17:35:09.209Z,16.80
2018-04-10T17:37:36.823Z,18.20
2018-04-10T17:40:04.342Z,17.23
2018-04-10T17:42:31.929Z,18.03
2018-04-10T17:44:59.450Z,19.20
2018-04-10T17:47:26.967Z,18.33
2018-04-10T17:49:54.490Z,19.03
2018-04-10T17:52:21.997Z,17.93
2018-04-10T17:54:49.509Z,17.60
2018-04-10T17:57:17.787Z,18.57
2018-04-10T17:59:45.310Z,17.90
2018-04-10T18:02:12.810Z,18.13
2018-04-10T18:04:40.324Z,39.23
2018-04-10T18:07:07.842Z,19.30
2018-04-10T18:09:35.345Z,18.20
2018-04-10T18:12:02.862Z,20.37
2018-04-10T18:14:30.554Z,18.73
2018-04-10T18:16:58.061Z,19.37
2018-04-10T18:19:25.584Z,20.00
2018-04-10T18:21:53.206Z,19.87
2018-04-10T18:24:20.990Z,19.57
2018-04-10T18:26:48.498Z,21.87
2018-04-10T18:29:16.054Z,20.73
2018-04-10T18:31:44.590Z,20.77
2018-04-10T18:34:12.365Z,21.17
2018-04-10T18:36:39.866Z,22.30
2018-04-10T18:39:07.843Z,20.43
2018-04-10T18:41:35.653Z,20.80
2018-04-10T18:44:03.406Z,21.63
2018-04-10T18:46:30.914Z,26.87
2018-04-10T18:48:58.666Z,22.57
2018-04-10T18:51:26.159Z,28.30
2018-04-10T18:53:53.825Z,46.70
2018-04-10T18:56:21.339Z,23.30
2018-04-10T18:58:48.847Z,23.13
2018-04-10T19:01:16.365Z,22.47
2018-04-10T19:03:44.635Z,25.03
2018-04-10T19:06:12.157Z,21.07
2018-04-10T19:08:39.813Z,22.47
2018-04-10T19:11:07.325Z,21.40
2018-04-10T19:13:34.941Z,20.90
2018-04-10T19:16:02.464Z,28.47
2018-04-10T19:18:29.979Z,20.87
2018-04-10T19:20:57.497Z,19.97
2018-04-10T19:23:25.172Z,20.83
2018-04-10T19:25:52.676Z,19.17
2018-04-10T19:28:20.186Z,22.00
2018-04-10T19:30:47.733Z,21.70
2018-04-10T19:33:15.273Z,20.77
2018-04-10T19:35:42.773Z,22.23
2018-04-10T19:38:10.493Z,22.30
2018-04-10T19:40:38.837Z,20.40
2018-04-10T19:43:06.367Z,22.43
2018-04-10T19:45:34.117Z,21.33
2018-04-10T19:48:01.637Z,23.67
2018-04-10T19:50:29.141Z,21.70
2018-04-10T19:52:56.693Z,23.20
2018-04-10T19:55:24.205Z,19.10
2018-04-10T19:57:51.711Z,21.23
2018-04-10T20:00:19.469Z,20.90
2018-04-10T20:02:46.985Z,24.77
2018-04-10T20:05:14.510Z,21.77
2018-04-10T20:07:41.985Z,20.67
2018-04-10T20:10:10.269Z,18.33
2018-04-10T20:12:37.811Z,22.70
2018-04-10T20:15:05.550Z,21.63
2018-04-10T20:17:33.061Z,24.00
2018-04-10T20:20:00.628Z,21.60
2018-04-10T20:22:28.149Z,15.90
2018-04-10T20:24:55.692Z,22.37
2018-04-10T20:27:23.285Z,21.20
2018-04-10T20:29:50.745Z,22.70
2018-04-10T20:32:18.555Z,20.70
2018-04-10T20:34:46.076Z,21.10
2018-04-10T20:37:13.750Z,22.27
2018-04-10T20:39:41.274Z,21.37
2018-04-10T20:42:08.789Z,21.37
2018-04-10T20:44:36.320Z,19.53
2018-04-10T20:47:03.881Z,20.87
2018-04-10T20:49:31.405Z,20.83
2018-04-10T20:51:58.911Z,21.47
2018-04-10T20:54:26.416Z,20.03
2018-04-10T20:56:54.692Z,20.13
2018-04-10T20:59:22.827Z,19.83
2018-04-10T21:01:50.340Z,20.97
2018-04-10T21:04:17.857Z,20.47
2018-04-10T21:06:45.349Z,21.73
2018-04-10T21:09:12.905Z,20.73
2018-04-10T21:11:40.377Z,20.20
2018-04-10T21:14:08.013Z,18.73
2018-04-10T21:16:35.529Z,19.03
2018-04-10T21:19:03.337Z,16.70
2018-04-10T21:21:31.054Z,18.53
2018-04-10T21:23:58.561Z,17.40
2018-04-10T21:26:26.059Z,17.63
2018-04-10T21:28:53.751Z,17.87
2018-04-10T21:31:21.301Z,17.27
2018-04-10T21:33:48.771Z,19.63
2018-04-10T21:36:16.300Z,15.00
2018-04-10T21:38:44.614Z,16.80
2018-04-10T21:41:12.119Z,16.80
2018-04-10T21:43:39.621Z,16.80
2018-04-10T21:46:07.475Z,18.07
2018-04-10T21:48:34.985Z,15.83
2018-04-10T21:51:02.685Z,16.63
2018-04-10T21:53:30.201Z,14.93
2018-04-10T21:55:57.888Z,16.17
2018-04-10T21:58:25.681Z,14.93
2018-04-10T22:00:53.185Z,14.87
2018-04-10T22:03:20.711Z,15.20
2018-04-10T22:05:48.221Z,14.40
2018-04-10T22:08:15.732Z,15.50
2018-04-10T22:10:43.264Z,12.97
2018-04-10T22:13:11.030Z,16.07
2018-04-10T22:15:38.558Z,14.77
2018-04-10T22:18:06.230Z,13.47
2018-04-10T22:20:33.742Z,15.40
2018-04-10T22:23:01.486Z,14.23
2018-04-10T22:25:29.004Z,13.80
2018-04-10T22:27:56.693Z,13.47
2018-04-10T22:30:24.212Z,13.07
2018-04-10T22:32:51.911Z,12.70
2018-04-10T22:35:19.410Z,14.03
2018-04-10T22:37:47.093Z,12.43
2018-04-10T22:40:14.641Z,13.20
2018-04-10T22:42:42.146Z,11.37
2018-04-10T22:45:10.415Z,12.87
2018-04-10T22:47:38.150Z,13.30
2018-04-10T22:50:05.662Z,11.47
2018-04-10T22:52:33.170Z,12.07
2018-04-10T22:55:00.803Z,11.60
2018-04-10T22:57:28.598Z,12.23
2018-04-10T22:59:56.104Z,11.30
2018-04-10T23:02:23.630Z,11.30
2018-04-10T23:04:51.139Z,13.30
2018-04-10T23:07:18.744Z,12.00
2018-04-10T23:09:46.248Z,11.80
2018-04-10T23:12:13.944Z,12.13
2018-04-10T23:14:42.667Z,12.10
2018-04-10T23:17:10.608Z,12.07
2018-04-10T23:19:38.109Z,10.53
2018-04-10T23:22:05.650Z,11.13
2018-04-10T23:24:33.167Z,10.40
2018-04-10T23:27:00.850Z,11.37
2018-04-10T23:29:28.346Z,10.90
2018-04-10T23:31:56.076Z,10.20
2018-04-10T23:34:23.576Z,10.67
2018-04-10T23:36:51.093Z,10.30
2018-04-10T23:39:18.611Z,8.90
2018-04-10T23:41:46.887Z,8.30
2018-04-10T23:44:14.411Z,10.07
2018-04-10T23:46:42.429Z,9.37
2018-04-10T23:49:09.942Z,10.30
2018-04-10T23:51:37.450Z,10.70
2018-04-10T23:54:05.054Z,11.40
2018-04-10T23:56:32.563Z,9.10
2018-04-10T23:59:00.221Z,10.03
